Time;durP1;ratioP1;P1;durP2;ratioP2;P2;SDS_P1;SDS_P2;PMS_P1;PMS_P2;Temp;Humidity;BMP_temperature;BMP_pressure;BME280_temperature;BME280_humidity;BME280_pressure;Samples;Min_cycle;Max_cycle;Signal;HPM_P1;HPM_P2
2022/09/30 00:02:55;;;;;;;7.60;3.65;;;;;;;;;;6108053;23;20205;-89
2022/09/30 00:06:03;;;;;;;7.85;3.30;;;;;;;;;;6108030;23;20702;-89
2022/09/30 00:09:08;;;;;;;4.90;3.10;;;;;;;;;;6106001;23;20239;-90
2022/09/30 00:12:12;;;;;;;7.47;3.30;;;;;;;;;;6106618;23;20213;-91
2022/09/30 00:15:18;;;;;;;10.75;3.72;;;;;;;;;;6108035;23;20161;-91
2022/09/30 00:18:23;;;;;;;6.20;3.70;;;;;;;;;;6107341;23;20173;-92
2022/09/30 00:21:29;;;;;;;5.88;3.45;;;;;;;;;;6107828;23;20194;-89
2022/09/30 00:24:35;;;;;;;6.35;3.67;;;;;;;;;;6108942;23;20166;-89
2022/09/30 00:27:40;;;;;;;7.55;3.63;;;;;;;;;;6107926;23;20220;-88
2022/09/30 00:30:47;;;;;;;10.13;3.70;;;;;;;;;;6108119;23;20602;-88
2022/09/30 00:37:14;;;;;;;6.47;3.50;;;;;;;;;;6107442;23;20171;-90
2022/09/30 00:40:19;;;;;;;6.55;3.83;;;;;;;;;;6106824;23;20179;-90
2022/09/30 00:43:40;;;;;;;8.00;3.13;;;;;;;;;;6106218;23;20169;-93
2022/09/30 00:46:45;;;;;;;9.75;3.95;;;;;;;;;;6107502;23;20170;-91
2022/09/30 00:49:51;;;;;;;5.88;3.50;;;;;;;;;;6108006;23;20166;-92
2022/09/30 00:53:01;;;;;;;13.32;6.47;;;;;;;;;;6107640;23;20174;-88
2022/09/30 00:56:08;;;;;;;9.05;4.53;;;;;;;;;;6106112;23;20178;-90
2022/09/30 00:59:15;;;;;;;7.07;3.83;;;;;;;;;;6105802;23;20181;-90
2022/09/30 01:02:22;;;;;;;6.07;3.83;;;;;;;;;;6106791;23;20197;-90
2022/09/30 01:05:27;;;;;;;7.05;4.15;;;;;;;;;;6107627;23;20194;-89
2022/09/30 01:08:36;;;;;;;8.40;3.88;;;;;;;;;;6106315;23;20294;-91
2022/09/30 01:11:42;;;;;;;6.72;4.30;;;;;;;;;;6106174;23;20174;-91
2022/09/30 01:14:52;;;;;;;6.75;4.47;;;;;;;;;;6104156;23;20628;-89
2022/09/30 01:18:01;;;;;;;7.30;4.47;;;;;;;;;;6105542;23;20621;-92
2022/09/30 01:21:14;;;;;;;11.00;4.43;;;;;;;;;;6104308;23;20194;-91
2022/09/30 01:24:36;;;;;;;10.40;4.63;;;;;;;;;;6105376;23;20170;-88
2022/09/30 01:27:53;;;;;;;7.38;4.35;;;;;;;;;;6104055;23;20170;-91
2022/09/30 01:31:06;;;;;;;6.50;4.53;;;;;;;;;;6105995;23;20170;-89
2022/09/30 01:34:15;;;;;;;9.82;4.82;;;;;;;;;;6105238;23;20233;-92
2022/09/30 01:37:25;;;;;;;6.78;4.45;;;;;;;;;;6105630;23;20571;-91
2022/09/30 01:40:34;;;;;;;8.18;4.47;;;;;;;;;;6106180;23;20166;-90
2022/09/30 01:43:44;;;;;;;8.25;4.65;;;;;;;;;;6105088;23;20174;-90
2022/09/30 01:46:54;;;;;;;11.32;5.20;;;;;;;;;;6106215;23;20259;-91
2022/09/30 01:50:02;;;;;;;8.27;5.30;;;;;;;;;;6104745;23;20197;-91
2022/09/30 01:53:11;;;;;;;9.65;4.80;;;;;;;;;;6105659;23;20506;-90
2022/09/30 01:56:18;;;;;;;6.43;3.80;;;;;;;;;;6105100;23;20201;-91
2022/09/30 01:59:26;;;;;;;9.30;4.15;;;;;;;;;;6105125;23;20248;-91
2022/09/30 02:02:34;;;;;;;6.55;4.43;;;;;;;;;;6104301;23;20197;-90
2022/09/30 02:05:41;;;;;;;8.55;4.40;;;;;;;;;;6105949;23;20169;-89
2022/09/30 02:08:48;;;;;;;8.40;3.92;;;;;;;;;;6106380;23;20174;-92
2022/09/30 02:11:55;;;;;;;9.98;4.30;;;;;;;;;;6105601;23;20182;-91
2022/09/30 02:15:03;;;;;;;9.77;4.60;;;;;;;;;;6106174;23;20155;-92
2022/09/30 02:18:13;;;;;;;7.70;3.75;;;;;;;;;;6105325;23;20302;-90
2022/09/30 02:21:21;;;;;;;5.95;3.85;;;;;;;;;;6103915;23;20463;-90
2022/09/30 02:24:28;;;;;;;8.00;4.38;;;;;;;;;;6105916;23;20182;-90
2022/09/30 02:27:41;;;;;;;6.00;3.78;;;;;;;;;;6105639;23;20161;-89
2022/09/30 02:30:48;;;;;;;8.32;4.88;;;;;;;;;;6106713;23;20169;-90
2022/09/30 02:33:57;;;;;;;11.57;5.07;;;;;;;;;;6106393;23;20193;-87
2022/09/30 02:37:05;;;;;;;7.18;4.85;;;;;;;;;;6105652;23;20170;-89
2022/09/30 02:40:12;;;;;;;9.52;4.82;;;;;;;;;;6107119;23;20189;-91
2022/09/30 02:43:19;;;;;;;8.68;4.78;;;;;;;;;;6104983;23;20197;-88
2022/09/30 02:46:26;;;;;;;12.70;5.28;;;;;;;;;;6107270;23;20161;-90
2022/09/30 02:49:37;;;;;;;7.63;4.97;;;;;;;;;;6105939;23;20168;-90
2022/09/30 02:52:48;;;;;;;8.98;5.20;;;;;;;;;;6106153;23;20173;-91
2022/09/30 02:56:06;;;;;;;10.70;5.38;;;;;;;;;;6105865;23;20170;-90
2022/09/30 02:59:10;;;;;;;9.93;5.35;;;;;;;;;;6105534;23;20487;-89
2022/09/30 03:02:15;;;;;;;7.00;4.38;;;;;;;;;;6106230;23;20193;-89
2022/09/30 03:05:26;;;;;;;8.55;4.80;;;;;;;;;;6105760;23;20169;-89
2022/09/30 03:08:31;;;;;;;9.85;4.57;;;;;;;;;;6106009;23;20613;-90
2022/09/30 03:11:37;;;;;;;9.68;4.53;;;;;;;;;;6107045;23;20165;-90
2022/09/30 03:14:51;;;;;;;8.10;4.30;;;;;;;;;;6106116;23;20173;-90
2022/09/30 03:18:12;;;;;;;7.20;4.28;;;;;;;;;;6106821;23;20178;-90
2022/09/30 03:21:25;;;;;;;9.65;4.95;;;;;;;;;;6107286;23;20628;-90
2022/09/30 03:24:46;;;;;;;13.57;4.80;;;;;;;;;;6106978;23;20177;-88
2022/09/30 03:27:59;;;;;;;7.35;4.45;;;;;;;;;;6106395;23;20174;-90
2022/09/30 03:31:08;;;;;;;7.97;5.13;;;;;;;;;;6105502;23;20157;-89
2022/09/30 03:34:20;;;;;;;7.70;4.55;;;;;;;;;;6105149;23;20217;-89
2022/09/30 03:37:29;;;;;;;7.07;4.55;;;;;;;;;;6105229;23;20170;-90
2022/09/30 03:40:38;;;;;;;5.82;4.10;;;;;;;;;;6104923;23;20182;-90
2022/09/30 03:43:44;;;;;;;17.63;4.60;;;;;;;;;;6105147;23;20201;-90
2022/09/30 03:46:51;;;;;;;6.07;3.40;;;;;;;;;;6106931;23;20233;-89
2022/09/30 03:49:58;;;;;;;10.02;4.25;;;;;;;;;;6106231;23;20178;-90
2022/09/30 03:53:11;;;;;;;5.72;3.92;;;;;;;;;;6106143;23;20169;-89
2022/09/30 03:56:16;;;;;;;7.00;4.45;;;;;;;;;;6105003;23;20186;-91
2022/09/30 03:59:24;;;;;;;6.05;3.53;;;;;;;;;;6106025;23;20179;-89
2022/09/30 04:03:07;;;;;;;6.18;4.00;;;;;;;;;;6105808;23;20177;-89
2022/09/30 04:06:13;;;;;;;5.40;3.53;;;;;;;;;;6106937;23;20177;-91
2022/09/30 04:09:20;;;;;;;7.82;3.88;;;;;;;;;;6108370;23;20165;-89
2022/09/30 04:12:25;;;;;;;7.28;4.35;;;;;;;;;;6108221;23;20165;-90
2022/09/30 04:15:30;;;;;;;7.45;3.55;;;;;;;;;;6110684;23;20186;-91
2022/09/30 04:18:37;;;;;;;13.63;4.45;;;;;;;;;;6109714;23;20186;-91
2022/09/30 04:21:42;;;;;;;5.25;3.55;;;;;;;;;;6109403;23;20174;-90
2022/09/30 04:24:50;;;;;;;9.32;3.63;;;;;;;;;;6109961;23;20186;-91
2022/09/30 04:27:55;;;;;;;7.90;3.67;;;;;;;;;;6109114;23;20161;-89
2022/09/30 04:31:00;;;;;;;8.65;4.00;;;;;;;;;;6110512;23;20178;-89
2022/09/30 04:34:05;;;;;;;7.75;4.35;;;;;;;;;;6110019;23;20238;-89
2022/09/30 04:37:11;;;;;;;5.45;3.97;;;;;;;;;;6110118;23;20214;-89
2022/09/30 04:40:18;;;;;;;5.50;3.70;;;;;;;;;;6109096;23;20174;-90
2022/09/30 04:43:24;;;;;;;10.27;4.93;;;;;;;;;;6107257;23;20186;-91
2022/09/30 04:46:30;;;;;;;8.25;4.40;;;;;;;;;;6107313;23;20185;-90
2022/09/30 04:49:35;;;;;;;8.70;5.22;;;;;;;;;;6109417;23;20161;-88
2022/09/30 04:52:42;;;;;;;10.52;4.90;;;;;;;;;;6108380;23;20457;-88
2022/09/30 04:55:49;;;;;;;9.77;4.63;;;;;;;;;;6107578;23;20178;-90
2022/09/30 04:58:54;;;;;;;11.10;5.10;;;;;;;;;;6107896;23;20189;-90
2022/09/30 05:02:01;;;;;;;10.02;5.57;;;;;;;;;;6108474;23;20226;-90
2022/09/30 05:05:06;;;;;;;11.00;5.25;;;;;;;;;;6107568;23;20231;-89
2022/09/30 05:08:12;;;;;;;8.35;5.32;;;;;;;;;;6107160;23;20290;-92
2022/09/30 05:11:19;;;;;;;11.05;5.43;;;;;;;;;;6106157;23;20174;-92
2022/09/30 05:14:25;;;;;;;9.85;5.97;;;;;;;;;;6105316;23;20185;-93
2022/09/30 05:17:30;;;;;;;12.13;5.72;;;;;;;;;;6107854;23;20173;-93
2022/09/30 05:20:38;;;;;;;12.40;5.97;;;;;;;;;;6105332;23;20265;-92
2022/09/30 05:23:43;;;;;;;14.77;6.45;;;;;;;;;;6107843;23;20202;-93
2022/09/30 05:26:50;;;;;;;11.85;6.00;;;;;;;;;;6108423;23;20181;-93
2022/09/30 05:29:58;;;;;;;12.95;6.25;;;;;;;;;;6105834;23;20166;-93
2022/09/30 05:33:02;;;;;;;12.48;5.95;;;;;;;;;;6108054;23;20161;-92
2022/09/30 05:36:10;;;;;;;11.50;6.28;;;;;;;;;;6108639;23;20235;-93
2022/09/30 05:39:16;;;;;;;15.18;7.47;;;;;;;;;;6112939;23;20161;-91
2022/09/30 05:42:24;;;;;;;12.07;6.90;;;;;;;;;;6112983;23;20165;-93
2022/09/30 05:45:29;;;;;;;13.95;7.30;;;;;;;;;;6109993;23;20161;-91
2022/09/30 05:48:35;;;;;;;13.02;6.65;;;;;;;;;;6110277;23;20190;-93
2022/09/30 05:51:40;;;;;;;17.52;8.57;;;;;;;;;;6108252;23;20557;-93
2022/09/30 05:54:45;;;;;;;17.27;8.32;;;;;;;;;;6108637;23;20174;-89
2022/09/30 05:57:53;;;;;;;18.63;8.88;;;;;;;;;;6109550;23;20173;-90
2022/09/30 06:00:58;;;;;;;19.65;9.13;;;;;;;;;;6107932;23;20229;-89
2022/09/30 06:04:04;;;;;;;19.35;8.90;;;;;;;;;;6107619;23;20498;-89
2022/09/30 06:07:13;;;;;;;18.33;8.95;;;;;;;;;;6109098;23;20238;-89
2022/09/30 06:10:18;;;;;;;14.77;8.18;;;;;;;;;;6108257;23;20270;-90
2022/09/30 06:13:25;;;;;;;17.60;8.27;;;;;;;;;;6108281;23;20162;-90
2022/09/30 06:16:30;;;;;;;14.25;8.38;;;;;;;;;;6109367;23;20173;-89
2022/09/30 06:19:35;;;;;;;15.05;8.30;;;;;;;;;;6108384;23;20265;-89
2022/09/30 06:22:42;;;;;;;14.13;7.28;;;;;;;;;;6109765;23;20162;-90
2022/09/30 06:25:51;;;;;;;16.42;8.77;;;;;;;;;;6110711;23;20194;-90
2022/09/30 06:28:58;;;;;;;12.73;5.95;;;;;;;;;;6111004;23;20170;-89
2022/09/30 06:32:03;;;;;;;13.77;6.43;;;;;;;;;;6109498;23;20169;-89
2022/09/30 06:35:09;;;;;;;10.77;6.35;;;;;;;;;;6107301;23;20190;-90
2022/09/30 06:38:15;;;;;;;8.57;5.55;;;;;;;;;;6110058;23;20201;-91
2022/09/30 06:41:26;;;;;;;9.90;5.85;;;;;;;;;;6109646;23;20218;-88
2022/09/30 06:44:36;;;;;;;11.38;5.95;;;;;;;;;;6108849;23;20662;-88
2022/09/30 06:47:42;;;;;;;8.45;5.40;;;;;;;;;;6107667;23;20495;-89
2022/09/30 06:50:47;;;;;;;11.40;5.88;;;;;;;;;;6107974;23;20181;-90
2022/09/30 06:53:53;;;;;;;11.00;5.60;;;;;;;;;;6107768;23;20178;-91
2022/09/30 06:56:58;;;;;;;8.35;5.15;;;;;;;;;;6109021;23;20241;-89
2022/09/30 07:00:05;;;;;;;9.65;5.60;;;;;;;;;;6108225;23;20162;-89
2022/09/30 07:03:19;;;;;;;9.57;5.95;;;;;;;;;;6108112;23;20196;-91
2022/09/30 07:06:25;;;;;;;9.60;5.70;;;;;;;;;;6106413;23;20185;-89
2022/09/30 07:09:30;;;;;;;9.15;4.72;;;;;;;;;;6109207;23;20154;-90
2022/09/30 07:12:36;;;;;;;7.07;4.50;;;;;;;;;;6107958;23;20170;-91
2022/09/30 07:15:44;;;;;;;8.07;5.07;;;;;;;;;;6108905;23;20189;-91
2022/09/30 07:18:49;;;;;;;8.48;4.72;;;;;;;;;;6107782;23;20158;-91
2022/09/30 07:21:54;;;;;;;7.38;4.75;;;;;;;;;;6108526;23;20253;-89
2022/09/30 07:25:00;;;;;;;9.02;4.55;;;;;;;;;;6105870;23;20201;-90
2022/09/30 07:28:05;;;;;;;6.97;4.07;;;;;;;;;;6106125;23;20239;-89
2022/09/30 07:31:12;;;;;;;7.75;4.10;;;;;;;;;;6107346;23;20206;-91
2022/09/30 07:34:18;;;;;;;6.22;4.13;;;;;;;;;;6109087;23;20173;-90
2022/09/30 07:37:25;;;;;;;5.45;3.80;;;;;;;;;;6110216;23;20190;-89
2022/09/30 07:40:30;;;;;;;5.15;3.63;;;;;;;;;;6108831;23;20174;-90
2022/09/30 07:43:39;;;;;;;5.57;3.50;;;;;;;;;;6107884;23;20197;-90
2022/09/30 07:46:46;;;;;;;8.57;4.00;;;;;;;;;;6108606;23;20170;-89
2022/09/30 07:49:52;;;;;;;8.73;3.55;;;;;;;;;;6108918;23;20174;-89
2022/09/30 07:52:56;;;;;;;6.82;3.63;;;;;;;;;;6111792;23;20193;-90
2022/09/30 07:56:03;;;;;;;8.70;5.45;;;;;;;;;;6110060;23;20230;-89
2022/09/30 07:59:08;;;;;;;5.45;3.40;;;;;;;;;;6110916;23;20224;-91
2022/09/30 08:02:16;;;;;;;6.60;3.13;;;;;;;;;;6108591;23;20228;-89
2022/09/30 08:05:21;;;;;;;5.82;3.75;;;;;;;;;;6112357;23;20181;-91
2022/09/30 08:08:26;;;;;;;10.25;4.00;;;;;;;;;;6112496;23;20241;-89
2022/09/30 08:11:42;;;;;;;9.15;4.72;;;;;;;;;;6109937;23;20170;-90
2022/09/30 08:14:47;;;;;;;6.93;3.22;;;;;;;;;;6111683;23;20229;-90
2022/09/30 08:17:54;;;;;;;5.70;3.03;;;;;;;;;;6109990;23;20185;-90
2022/09/30 08:21:03;;;;;;;4.20;3.00;;;;;;;;;;6107889;23;20678;-91
2022/09/30 08:24:08;;;;;;;12.27;6.00;;;;;;;;;;6109064;23;20185;-92
2022/09/30 08:27:16;;;;;;;7.85;2.65;;;;;;;;;;6107503;23;20642;-92
2022/09/30 08:33:57;;;;;;;3.30;2.40;;;;;;;;;;6113244;23;20246;-91
2022/09/30 08:37:02;;;;;;;5.35;2.33;;;;;;;;;;6109433;23;20218;-91
2022/09/30 08:40:07;;;;;;;4.13;2.60;;;;;;;;;;6110673;23;20174;-91
2022/09/30 08:43:38;;;;;;;5.32;2.58;;;;;;;;;;6111869;23;20187;-93
2022/09/30 08:46:54;;;;;;;3.50;2.10;;;;;;;;;;6111293;23;20178;-90
2022/09/30 08:50:04;;;;;;;2.85;2.10;;;;;;;;;;6108024;23;20232;-90
2022/09/30 08:56:31;;;;;;;4.20;2.10;;;;;;;;;;6110966;23;20596;-90
2022/09/30 08:59:38;;;;;;;4.35;2.00;;;;;;;;;;6107675;23;20157;-91
2022/09/30 09:02:47;;;;;;;3.20;1.95;;;;;;;;;;6110560;23;20170;-90
2022/09/30 09:05:57;;;;;;;3.78;2.13;;;;;;;;;;6110702;23;20193;-91
2022/09/30 09:09:10;;;;;;;3.40;2.10;;;;;;;;;;6110914;23;20170;-90
2022/09/30 09:12:29;;;;;;;3.30;1.60;;;;;;;;;;6110989;23;20239;-88
2022/09/30 09:15:42;;;;;;;1.65;1.48;;;;;;;;;;6109437;23;20189;-90
2022/09/30 09:18:56;;;;;;;1.95;1.50;;;;;;;;;;6110698;23;20177;-90
2022/09/30 09:22:04;;;;;;;2.53;1.60;;;;;;;;;;6110847;23;20223;-90
2022/09/30 09:25:26;;;;;;;3.90;1.95;;;;;;;;;;6109478;23;20237;-89
2022/09/30 09:28:35;;;;;;;2.03;1.27;;;;;;;;;;6111276;23;20170;-91
2022/09/30 09:31:42;;;;;;;3.15;1.80;;;;;;;;;;6111536;23;20241;-90
2022/09/30 09:34:51;;;;;;;1.60;1.30;;;;;;;;;;6109482;23;20166;-91
2022/09/30 09:38:25;;;;;;;3.08;1.48;;;;;;;;;;6110700;23;20187;-89
2022/09/30 09:41:35;;;;;;;2.42;1.42;;;;;;;;;;6111271;23;20170;-91
2022/09/30 09:44:55;;;;;;;4.10;1.90;;;;;;;;;;6110155;23;20214;-90
2022/09/30 09:48:00;;;;;;;2.53;1.63;;;;;;;;;;6109100;23;20171;-90
2022/09/30 09:51:11;;;;;;;2.78;1.70;;;;;;;;;;6110564;23;20254;-91
2022/09/30 09:54:19;;;;;;;8.50;2.00;;;;;;;;;;6109648;23;20242;-91
2022/09/30 09:57:26;;;;;;;5.80;1.70;;;;;;;;;;6109591;23;20485;-91
2022/09/30 10:04:09;;;;;;;1.98;1.70;;;;;;;;;;6108856;23;20206;-92
2022/09/30 10:07:19;;;;;;;4.38;2.10;;;;;;;;;;6115355;23;20236;-92
2022/09/30 10:10:29;;;;;;;4.05;2.25;;;;;;;;;;6113151;23;20226;-93
2022/09/30 10:13:42;;;;;;;5.85;2.78;;;;;;;;;;6111917;23;20220;-92
2022/09/30 10:21:08;;;;;;;5.18;3.30;;;;;;;;;;6109128;23;20193;-90
2022/09/30 10:24:20;;;;;;;4.47;3.22;;;;;;;;;;6110754;23;20250;-90
2022/09/30 10:27:30;;;;;;;4.43;3.30;;;;;;;;;;6109941;23;20157;-89
2022/09/30 10:30:46;;;;;;;7.53;3.17;;;;;;;;;;6108710;23;20241;-90
2022/09/30 10:33:57;;;;;;;5.93;3.30;;;;;;;;;;6114157;23;20170;-90
2022/09/30 10:37:08;;;;;;;5.82;3.20;;;;;;;;;;6111643;23;20181;-89
2022/09/30 10:40:29;;;;;;;6.75;3.40;;;;;;;;;;6112567;23;20174;-89
2022/09/30 10:44:11;;;;;;;5.03;3.45;;;;;;;;;;6114514;23;20183;-91
2022/09/30 10:47:50;;;;;;;7.13;3.08;;;;;;;;;;6114224;23;20334;-92
2022/09/30 10:54:58;;;;;;;5.60;3.28;;;;;;;;;;6115947;23;20238;-91
2022/09/30 10:58:34;;;;;;;5.03;3.10;;;;;;;;;;6111105;23;20217;-92
2022/09/30 11:02:16;;;;;;;7.60;3.30;;;;;;;;;;6113371;23;20189;-93
2022/09/30 11:05:37;;;;;;;4.43;3.10;;;;;;;;;;6112749;23;20673;-93
2022/09/30 11:12:37;;;;;;;4.88;2.78;;;;;;;;;;6112049;23;20168;-91
2022/09/30 11:19:52;;;;;;;4.93;2.78;;;;;;;;;;6114146;23;20177;-91
2022/09/30 19:53:06;;;;;;;19.90;7.38;;;;;;;;;;6104342;23;20202;-90
2022/09/30 19:56:13;;;;;;;15.20;8.40;;;;;;;;;;6110570;23;20659;-89
2022/09/30 19:59:18;;;;;;;13.13;7.63;;;;;;;;;;6111152;23;20294;-89
2022/09/30 20:02:23;;;;;;;16.27;7.82;;;;;;;;;;6111769;23;20214;-89
2022/09/30 20:05:29;;;;;;;14.27;7.72;;;;;;;;;;6110324;23;20198;-89
2022/09/30 20:08:36;;;;;;;29.85;9.10;;;;;;;;;;6109743;23;20174;-89
2022/09/30 20:11:44;;;;;;;21.05;9.43;;;;;;;;;;6110996;23;20174;-89
2022/09/30 20:18:12;;;;;;;17.55;9.55;;;;;;;;;;6111151;23;20222;-88
2022/09/30 20:21:17;;;;;;;28.08;10.15;;;;;;;;;;6111671;23;20158;-88
2022/09/30 20:24:24;;;;;;;29.80;9.95;;;;;;;;;;6108145;23;20235;-88
2022/09/30 20:27:31;;;;;;;29.80;10.60;;;;;;;;;;6108435;23;20174;-90
2022/09/30 20:30:44;;;;;;;23.08;9.43;;;;;;;;;;6106824;23;20222;-90
2022/09/30 20:33:49;;;;;;;23.20;9.52;;;;;;;;;;6105695;23;20158;-89
2022/09/30 20:36:54;;;;;;;28.35;10.00;;;;;;;;;;6104151;23;20742;-90
2022/09/30 20:40:02;;;;;;;26.50;10.43;;;;;;;;;;6104562;23;20170;-91
2022/09/30 20:43:08;;;;;;;29.45;11.25;;;;;;;;;;6104973;23;20169;-89
2022/09/30 20:46:13;;;;;;;56.80;11.00;;;;;;;;;;6104571;23;20281;-89
2022/09/30 20:49:18;;;;;;;23.20;9.60;;;;;;;;;;6108509;23;20169;-91
2022/09/30 20:52:23;;;;;;;43.65;9.73;;;;;;;;;;6107606;23;20190;-91
2022/09/30 20:55:30;;;;;;;40.92;10.27;;;;;;;;;;6106937;23;20173;-89
2022/09/30 20:58:35;;;;;;;43.38;10.40;;;;;;;;;;6116893;23;20174;-88
2022/09/30 21:01:41;;;;;;;58.78;11.43;;;;;;;;;;6113787;23;20178;-89
2022/09/30 21:04:46;;;;;;;420.05;18.85;;;;;;;;;;6113198;23;20277;-89
2022/09/30 21:07:51;;;;;;;71.65;11.27;;;;;;;;;;6114006;23;20226;-88
2022/09/30 21:11:04;;;;;;;42.83;10.75;;;;;;;;;;6113262;23;20170;-90
2022/09/30 21:14:11;;;;;;;72.93;12.23;;;;;;;;;;6112810;23;20235;-90
2022/09/30 21:17:15;;;;;;;66.53;12.00;;;;;;;;;;6113158;23;20166;-89
2022/09/30 21:20:21;;;;;;;80.22;11.65;;;;;;;;;;6115263;23;20174;-90
2022/09/30 21:23:26;;;;;;;87.43;12.10;;;;;;;;;;6112822;23;20227;-89
2022/09/30 21:26:36;;;;;;;52.20;9.93;;;;;;;;;;6113314;23;20205;-90
2022/09/30 21:29:42;;;;;;;47.47;9.07;;;;;;;;;;6114070;23;20233;-89
2022/09/30 21:32:48;;;;;;;76.70;8.65;;;;;;;;;;6113192;23;20226;-89
2022/09/30 21:36:00;;;;;;;152.65;9.80;;;;;;;;;;6111846;23;20170;-90
2022/09/30 21:39:08;;;;;;;53.15;8.75;;;;;;;;;;6114553;23;20162;-89
2022/09/30 21:42:21;;;;;;;69.50;8.65;;;;;;;;;;6111922;23;20170;-90
2022/09/30 21:45:29;;;;;;;45.15;8.35;;;;;;;;;;6113684;23;20189;-89
2022/09/30 21:48:37;;;;;;;40.85;8.55;;;;;;;;;;6112230;23;20214;-90
2022/09/30 21:51:43;;;;;;;82.55;10.15;;;;;;;;;;6109995;23;20197;-91
2022/09/30 21:54:54;;;;;;;69.40;10.00;;;;;;;;;;6112952;23;20187;-90
2022/09/30 21:58:01;;;;;;;98.45;9.57;;;;;;;;;;6110807;23;20178;-91
2022/09/30 22:01:32;;;;;;;65.13;9.00;;;;;;;;;;6108908;23;20185;-91
2022/09/30 22:04:37;;;;;;;56.65;8.02;;;;;;;;;;6108351;23;20173;-88
2022/09/30 22:07:42;;;;;;;54.60;8.27;;;;;;;;;;6108124;23;20512;-87
2022/09/30 22:10:49;;;;;;;37.00;7.60;;;;;;;;;;6106785;23;20459;-90
2022/09/30 22:13:58;;;;;;;29.90;7.95;;;;;;;;;;6106383;23;20149;-88
2022/09/30 22:17:08;;;;;;;35.13;6.63;;;;;;;;;;6107955;23;20262;-87
2022/09/30 22:20:14;;;;;;;41.83;8.10;;;;;;;;;;6106838;23;20169;-89
2022/09/30 22:23:19;;;;;;;65.88;7.60;;;;;;;;;;6104811;23;20169;-89
2022/09/30 22:26:25;;;;;;;69.28;7.43;;;;;;;;;;6106939;23;20197;-89
2022/09/30 22:29:32;;;;;;;50.83;7.75;;;;;;;;;;6105665;23;20169;-90
2022/09/30 22:32:41;;;;;;;58.92;7.18;;;;;;;;;;6108436;23;20174;-90
2022/09/30 22:39:09;;;;;;;58.70;8.25;;;;;;;;;;6105898;23;20166;-89
2022/09/30 22:42:14;;;;;;;23.90;7.05;;;;;;;;;;6103758;23;20224;-88
2022/09/30 22:45:20;;;;;;;43.08;8.40;;;;;;;;;;6107249;23;20193;-88
2022/09/30 22:48:26;;;;;;;153.27;10.02;;;;;;;;;;6106451;23;20170;-90
2022/09/30 22:51:32;;;;;;;153.38;9.50;;;;;;;;;;6106622;23;20194;-90
2022/09/30 22:54:37;;;;;;;102.57;9.27;;;;;;;;;;6107293;23;20172;-90
2022/09/30 22:57:42;;;;;;;46.70;9.75;;;;;;;;;;6106612;23;20181;-90
2022/09/30 23:00:56;;;;;;;42.30;8.15;;;;;;;;;;6106132;23;20250;-90
2022/09/30 23:04:01;;;;;;;61.95;8.40;;;;;;;;;;6104908;23;20170;-89
2022/09/30 23:07:07;;;;;;;21.83;7.35;;;;;;;;;;6105006;23;20205;-90
2022/09/30 23:10:11;;;;;;;21.77;6.78;;;;;;;;;;6104962;23;20257;-90
2022/09/30 23:13:19;;;;;;;38.92;7.32;;;;;;;;;;6109694;23;20170;-89
2022/09/30 23:16:26;;;;;;;93.82;8.15;;;;;;;;;;6104548;23;20231;-89
2022/09/30 23:19:31;;;;;;;114.95;9.82;;;;;;;;;;6105041;23;20170;-90
2022/09/30 23:22:36;;;;;;;83.68;8.68;;;;;;;;;;6103366;23;20182;-90
2022/09/30 23:25:40;;;;;;;83.95;8.65;;;;;;;;;;6103459;23;20439;-91
2022/09/30 23:28:46;;;;;;;44.45;8.20;;;;;;;;;;6102788;23;20298;-90
2022/09/30 23:31:52;;;;;;;75.03;7.60;;;;;;;;;;6101200;23;20174;-90
2022/09/30 23:34:57;;;;;;;24.35;5.97;;;;;;;;;;6103932;23;20166;-91
2022/09/30 23:38:01;;;;;;;13.18;5.90;;;;;;;;;;6102819;23;20226;-90
2022/09/30 23:41:08;;;;;;;10.68;5.53;;;;;;;;;;6103748;23;20201;-88
2022/09/30 23:44:16;;;;;;;7.85;4.97;;;;;;;;;;6104157;23;20215;-90
2022/09/30 23:47:23;;;;;;;11.52;5.10;;;;;;;;;;6102220;23;20300;-88
2022/09/30 23:50:28;;;;;;;13.40;6.07;;;;;;;;;;6103009;23;20170;-89
2022/09/30 23:53:34;;;;;;;15.00;5.25;;;;;;;;;;6103714;23;20182;-89
2022/09/30 23:56:40;;;;;;;12.55;4.85;;;;;;;;;;6103899;23;20166;-91
2022/09/30 23:59:44;;;;;;;11.05;5.32;;;;;;;;;;6103818;23;20253;-89
